sensor_id;sensor_type;location;lat;lon;timestamp;P1;durP1;ratioP1;P2;durP2;ratioP2
35891;SDS011;21993;42.672;23.296;2024-03-29T00:01:16;5.03;;;2.53;;
35891;SDS011;21993;42.672;23.296;2024-03-29T00:03:41;2.63;;;2.03;;
35891;SDS011;21993;42.672;23.296;2024-03-29T00:06:08;4.20;;;1.53;;
35891;SDS011;21993;42.672;23.296;2024-03-29T00:08:33;2.30;;;1.77;;
35891;SDS011;21993;42.672;23.296;2024-03-29T00:10:59;3.70;;;1.57;;
35891;SDS011;21993;42.672;23.296;2024-03-29T00:13:24;6.30;;;1.67;;
35891;SDS011;21993;42.672;23.296;2024-03-29T00:15:50;4.60;;;1.87;;
35891;SDS011;21993;42.672;23.296;2024-03-29T00:18:15;3.73;;;1.70;;
35891;SDS011;21993;42.672;23.296;2024-03-29T00:20:41;2.83;;;1.57;;
35891;SDS011;21993;42.672;23.296;2024-03-29T00:23:06;7.43;;;2.23;;
35891;SDS011;21993;42.672;23.296;2024-03-29T00:25:32;3.07;;;1.37;;
35891;SDS011;21993;42.672;23.296;2024-03-29T00:27:58;4.30;;;1.60;;
35891;SDS011;21993;42.672;23.296;2024-03-29T00:30:23;4.40;;;1.20;;
35891;SDS011;21993;42.672;23.296;2024-03-29T00:32:49;4.13;;;1.73;;
35891;SDS011;21993;42.672;23.296;2024-03-29T00:35:14;4.43;;;1.40;;
35891;SDS011;21993;42.672;23.296;2024-03-29T00:37:40;1.73;;;1.60;;
35891;SDS011;21993;42.672;23.296;2024-03-29T00:40:06;2.40;;;1.83;;
35891;SDS011;21993;42.672;23.296;2024-03-29T00:42:31;4.87;;;1.40;;
35891;SDS011;21993;42.672;23.296;2024-03-29T00:44:57;2.00;;;1.30;;
35891;SDS011;21993;42.672;23.296;2024-03-29T00:47:22;1.67;;;1.47;;
35891;SDS011;21993;42.672;23.296;2024-03-29T00:49:48;3.33;;;1.63;;
35891;SDS011;21993;42.672;23.296;2024-03-29T00:52:13;3.10;;;2.80;;
35891;SDS011;21993;42.672;23.296;2024-03-29T00:54:39;1.73;;;1.37;;
35891;SDS011;21993;42.672;23.296;2024-03-29T00:57:04;2.17;;;1.60;;
35891;SDS011;21993;42.672;23.296;2024-03-29T00:59:32;3.30;;;1.60;;
35891;SDS011;21993;42.672;23.296;2024-03-29T01:01:57;2.43;;;1.60;;
35891;SDS011;21993;42.672;23.296;2024-03-29T01:04:24;3.07;;;1.60;;
35891;SDS011;21993;42.672;23.296;2024-03-29T01:06:49;4.13;;;1.70;;
35891;SDS011;21993;42.672;23.296;2024-03-29T01:09:15;2.53;;;2.17;;
35891;SDS011;21993;42.672;23.296;2024-03-29T01:11:40;4.80;;;2.20;;
35891;SDS011;21993;42.672;23.296;2024-03-29T01:14:06;3.30;;;2.00;;
35891;SDS011;21993;42.672;23.296;2024-03-29T01:16:32;3.60;;;1.30;;
35891;SDS011;21993;42.672;23.296;2024-03-29T01:18:58;5.87;;;1.63;;
35891;SDS011;21993;42.672;23.296;2024-03-29T01:21:24;4.53;;;1.50;;
35891;SDS011;21993;42.672;23.296;2024-03-29T01:23:49;2.53;;;1.10;;
35891;SDS011;21993;42.672;23.296;2024-03-29T01:26:15;2.23;;;1.37;;
35891;SDS011;21993;42.672;23.296;2024-03-29T01:28:42;2.63;;;1.70;;
35891;SDS011;21993;42.672;23.296;2024-03-29T01:31:08;2.57;;;1.60;;
35891;SDS011;21993;42.672;23.296;2024-03-29T01:33:34;2.43;;;1.30;;
35891;SDS011;21993;42.672;23.296;2024-03-29T01:36:05;7.50;;;1.47;;
35891;SDS011;21993;42.672;23.296;2024-03-29T01:38:34;3.40;;;1.60;;
35891;SDS011;21993;42.672;23.296;2024-03-29T01:40:59;3.97;;;1.20;;
35891;SDS011;21993;42.672;23.296;2024-03-29T01:43:25;4.10;;;1.47;;
35891;SDS011;21993;42.672;23.296;2024-03-29T01:45:53;2.83;;;1.60;;
35891;SDS011;21993;42.672;23.296;2024-03-29T01:48:20;2.47;;;1.53;;
35891;SDS011;21993;42.672;23.296;2024-03-29T01:50:47;4.20;;;2.10;;
35891;SDS011;21993;42.672;23.296;2024-03-29T01:53:14;5.57;;;2.17;;
35891;SDS011;21993;42.672;23.296;2024-03-29T01:55:41;3.67;;;1.80;;
35891;SDS011;21993;42.672;23.296;2024-03-29T01:58:08;3.77;;;1.50;;
35891;SDS011;21993;42.672;23.296;2024-03-29T02:00:36;3.00;;;1.60;;
35891;SDS011;21993;42.672;23.296;2024-03-29T02:03:04;3.23;;;1.60;;
35891;SDS011;21993;42.672;23.296;2024-03-29T02:05:34;4.17;;;2.10;;
35891;SDS011;21993;42.672;23.296;2024-03-29T02:08:04;2.40;;;1.83;;
35891;SDS011;21993;42.672;23.296;2024-03-29T02:10:29;2.40;;;1.50;;
35891;SDS011;21993;42.672;23.296;2024-03-29T02:12:55;2.63;;;1.53;;
35891;SDS011;21993;42.672;23.296;2024-03-29T02:15:21;3.40;;;2.03;;
35891;SDS011;21993;42.672;23.296;2024-03-29T02:17:46;2.00;;;1.73;;
35891;SDS011;21993;42.672;23.296;2024-03-29T02:20:12;3.83;;;1.70;;
35891;SDS011;21993;42.672;23.296;2024-03-29T02:22:43;3.97;;;2.23;;
35891;SDS011;21993;42.672;23.296;2024-03-29T02:25:15;3.73;;;1.80;;
35891;SDS011;21993;42.672;23.296;2024-03-29T02:27:41;4.77;;;2.07;;
35891;SDS011;21993;42.672;23.296;2024-03-29T02:30:07;2.87;;;1.80;;
35891;SDS011;21993;42.672;23.296;2024-03-29T02:32:33;5.10;;;2.10;;
35891;SDS011;21993;42.672;23.296;2024-03-29T02:34:58;4.70;;;2.20;;
35891;SDS011;21993;42.672;23.296;2024-03-29T02:37:24;3.03;;;1.97;;
35891;SDS011;21993;42.672;23.296;2024-03-29T02:39:51;5.87;;;2.03;;
35891;SDS011;21993;42.672;23.296;2024-03-29T02:42:17;5.27;;;1.90;;
35891;SDS011;21993;42.672;23.296;2024-03-29T02:44:42;4.40;;;1.93;;
35891;SDS011;21993;42.672;23.296;2024-03-29T02:47:08;3.63;;;1.70;;
35891;SDS011;21993;42.672;23.296;2024-03-29T02:49:33;2.40;;;1.93;;
35891;SDS011;21993;42.672;23.296;2024-03-29T02:51:59;3.63;;;1.60;;
35891;SDS011;21993;42.672;23.296;2024-03-29T02:54:24;3.00;;;1.70;;
35891;SDS011;21993;42.672;23.296;2024-03-29T02:56:50;4.20;;;2.50;;
35891;SDS011;21993;42.672;23.296;2024-03-29T02:59:15;3.10;;;1.50;;
35891;SDS011;21993;42.672;23.296;2024-03-29T03:01:41;6.07;;;2.00;;
35891;SDS011;21993;42.672;23.296;2024-03-29T03:04:06;3.87;;;1.70;;
35891;SDS011;21993;42.672;23.296;2024-03-29T03:06:32;2.90;;;1.83;;
35891;SDS011;21993;42.672;23.296;2024-03-29T03:08:57;4.43;;;2.00;;
35891;SDS011;21993;42.672;23.296;2024-03-29T03:11:41;3.40;;;1.73;;
35891;SDS011;21993;42.672;23.296;2024-03-29T03:14:07;4.07;;;1.80;;
35891;SDS011;21993;42.672;23.296;2024-03-29T03:16:32;6.70;;;2.47;;
35891;SDS011;21993;42.672;23.296;2024-03-29T03:18:58;6.10;;;1.73;;
35891;SDS011;21993;42.672;23.296;2024-03-29T03:21:24;4.57;;;1.83;;
35891;SDS011;21993;42.672;23.296;2024-03-29T03:23:50;3.90;;;2.07;;
35891;SDS011;21993;42.672;23.296;2024-03-29T03:26:15;5.03;;;2.37;;
35891;SDS011;21993;42.672;23.296;2024-03-29T03:28:41;2.70;;;1.63;;
35891;SDS011;21993;42.672;23.296;2024-03-29T03:31:07;4.37;;;2.30;;
35891;SDS011;21993;42.672;23.296;2024-03-29T03:33:32;3.67;;;2.03;;
35891;SDS011;21993;42.672;23.296;2024-03-29T03:35:58;6.83;;;1.90;;
35891;SDS011;21993;42.672;23.296;2024-03-29T03:38:23;6.67;;;2.00;;
35891;SDS011;21993;42.672;23.296;2024-03-29T03:40:49;4.63;;;1.90;;
35891;SDS011;21993;42.672;23.296;2024-03-29T03:43:14;3.23;;;1.83;;
35891;SDS011;21993;42.672;23.296;2024-03-29T03:45:41;6.60;;;2.10;;
35891;SDS011;21993;42.672;23.296;2024-03-29T03:48:07;4.73;;;1.73;;
35891;SDS011;21993;42.672;23.296;2024-03-29T03:50:35;3.80;;;2.00;;
35891;SDS011;21993;42.672;23.296;2024-03-29T03:53:01;4.20;;;2.00;;
35891;SDS011;21993;42.672;23.296;2024-03-29T03:55:26;4.63;;;2.13;;
35891;SDS011;21993;42.672;23.296;2024-03-29T03:57:55;4.03;;;2.40;;
35891;SDS011;21993;42.672;23.296;2024-03-29T04:00:21;4.10;;;2.10;;
35891;SDS011;21993;42.672;23.296;2024-03-29T04:02:51;5.60;;;3.07;;
35891;SDS011;21993;42.672;23.296;2024-03-29T04:05:17;5.53;;;2.43;;
35891;SDS011;21993;42.672;23.296;2024-03-29T04:07:44;4.37;;;2.60;;
35891;SDS011;21993;42.672;23.296;2024-03-29T04:10:10;4.53;;;2.20;;
35891;SDS011;21993;42.672;23.296;2024-03-29T04:12:36;4.90;;;2.80;;
35891;SDS011;21993;42.672;23.296;2024-03-29T04:15:01;5.53;;;2.10;;
35891;SDS011;21993;42.672;23.296;2024-03-29T04:17:28;2.20;;;1.80;;
35891;SDS011;21993;42.672;23.296;2024-03-29T04:19:56;7.77;;;2.20;;
35891;SDS011;21993;42.672;23.296;2024-03-29T04:22:22;4.43;;;2.40;;
35891;SDS011;21993;42.672;23.296;2024-03-29T04:24:48;4.50;;;2.03;;
35891;SDS011;21993;42.672;23.296;2024-03-29T04:27:14;8.23;;;2.67;;
35891;SDS011;21993;42.672;23.296;2024-03-29T04:29:39;2.43;;;2.20;;
35891;SDS011;21993;42.672;23.296;2024-03-29T04:32:05;5.40;;;2.30;;
35891;SDS011;21993;42.672;23.296;2024-03-29T04:34:31;5.83;;;2.87;;
35891;SDS011;21993;42.672;23.296;2024-03-29T04:36:56;16.73;;;2.77;;
35891;SDS011;21993;42.672;23.296;2024-03-29T04:39:22;4.77;;;2.67;;
35891;SDS011;21993;42.672;23.296;2024-03-29T04:41:48;4.00;;;2.40;;
35891;SDS011;21993;42.672;23.296;2024-03-29T04:44:13;8.90;;;3.03;;
35891;SDS011;21993;42.672;23.296;2024-03-29T04:46:51;9.23;;;2.90;;
35891;SDS011;21993;42.672;23.296;2024-03-29T04:49:21;14.10;;;4.60;;
35891;SDS011;21993;42.672;23.296;2024-03-29T04:51:54;12.00;;;3.70;;
35891;SDS011;21993;42.672;23.296;2024-03-29T04:54:19;11.33;;;4.87;;
35891;SDS011;21993;42.672;23.296;2024-03-29T04:56:45;10.87;;;3.20;;
35891;SDS011;21993;42.672;23.296;2024-03-29T04:59:10;6.47;;;3.67;;
35891;SDS011;21993;42.672;23.296;2024-03-29T05:01:36;15.13;;;3.23;;
35891;SDS011;21993;42.672;23.296;2024-03-29T05:04:01;11.57;;;3.47;;
35891;SDS011;21993;42.672;23.296;2024-03-29T05:06:29;14.13;;;3.43;;
35891;SDS011;21993;42.672;23.296;2024-03-29T05:08:54;8.20;;;2.93;;
35891;SDS011;21993;42.672;23.296;2024-03-29T05:11:20;9.77;;;2.80;;
35891;SDS011;21993;42.672;23.296;2024-03-29T05:13:46;4.43;;;2.73;;
35891;SDS011;21993;42.672;23.296;2024-03-29T05:16:12;6.63;;;2.33;;
35891;SDS011;21993;42.672;23.296;2024-03-29T05:18:38;6.33;;;2.87;;
35891;SDS011;21993;42.672;23.296;2024-03-29T05:21:04;5.20;;;2.63;;
35891;SDS011;21993;42.672;23.296;2024-03-29T05:23:30;5.83;;;2.43;;
35891;SDS011;21993;42.672;23.296;2024-03-29T05:25:55;15.17;;;3.40;;
35891;SDS011;21993;42.672;23.296;2024-03-29T05:28:21;7.23;;;3.27;;
35891;SDS011;21993;42.672;23.296;2024-03-29T05:30:46;12.87;;;4.63;;
35891;SDS011;21993;42.672;23.296;2024-03-29T05:33:12;9.33;;;4.67;;
35891;SDS011;21993;42.672;23.296;2024-03-29T05:35:37;9.23;;;3.80;;
35891;SDS011;21993;42.672;23.296;2024-03-29T05:38:03;12.87;;;4.07;;
35891;SDS011;21993;42.672;23.296;2024-03-29T05:40:29;1.80;;;1.70;;
35891;SDS011;21993;42.672;23.296;2024-03-29T05:42:55;7.30;;;2.70;;
35891;SDS011;21993;42.672;23.296;2024-03-29T05:45:27;11.17;;;3.90;;
35891;SDS011;21993;42.672;23.296;2024-03-29T05:47:54;23.80;;;4.23;;
35891;SDS011;21993;42.672;23.296;2024-03-29T05:50:21;9.83;;;3.53;;
35891;SDS011;21993;42.672;23.296;2024-03-29T05:52:48;10.27;;;3.63;;
35891;SDS011;21993;42.672;23.296;2024-03-29T05:55:13;10.97;;;4.23;;
35891;SDS011;21993;42.672;23.296;2024-03-29T05:57:39;12.33;;;3.90;;
35891;SDS011;21993;42.672;23.296;2024-03-29T06:00:06;8.23;;;3.93;;
35891;SDS011;21993;42.672;23.296;2024-03-29T06:02:34;9.53;;;2.93;;
35891;SDS011;21993;42.672;23.296;2024-03-29T06:05:00;11.33;;;2.77;;
35891;SDS011;21993;42.672;23.296;2024-03-29T06:07:25;6.13;;;3.10;;
35891;SDS011;21993;42.672;23.296;2024-03-29T06:09:53;7.50;;;2.50;;
35891;SDS011;21993;42.672;23.296;2024-03-29T06:12:19;7.87;;;2.73;;
35891;SDS011;21993;42.672;23.296;2024-03-29T06:14:44;4.50;;;1.90;;
35891;SDS011;21993;42.672;23.296;2024-03-29T06:17:28;5.50;;;2.23;;
35891;SDS011;21993;42.672;23.296;2024-03-29T06:19:54;6.27;;;1.90;;
35891;SDS011;21993;42.672;23.296;2024-03-29T06:22:24;4.83;;;1.70;;
35891;SDS011;21993;42.672;23.296;2024-03-29T06:24:51;8.77;;;2.53;;
35891;SDS011;21993;42.672;23.296;2024-03-29T06:27:18;3.27;;;1.70;;
35891;SDS011;21993;42.672;23.296;2024-03-29T06:29:45;1.63;;;1.30;;
35891;SDS011;21993;42.672;23.296;2024-03-29T06:32:11;3.77;;;1.33;;
35891;SDS011;21993;42.672;23.296;2024-03-29T06:34:37;2.13;;;1.20;;
35891;SDS011;21993;42.672;23.296;2024-03-29T06:37:02;5.10;;;1.97;;
35891;SDS011;21993;42.672;23.296;2024-03-29T06:39:28;2.77;;;1.60;;
35891;SDS011;21993;42.672;23.296;2024-03-29T06:41:54;5.30;;;1.60;;
35891;SDS011;21993;42.672;23.296;2024-03-29T06:44:20;1.87;;;1.47;;
35891;SDS011;21993;42.672;23.296;2024-03-29T06:46:46;3.53;;;1.23;;
35891;SDS011;21993;42.672;23.296;2024-03-29T06:49:12;0.93;;;0.93;;
35891;SDS011;21993;42.672;23.296;2024-03-29T06:51:41;1.60;;;1.40;;
35891;SDS011;21993;42.672;23.296;2024-03-29T06:54:07;1.23;;;1.00;;
35891;SDS011;21993;42.672;23.296;2024-03-29T06:56:32;7.00;;;1.47;;
35891;SDS011;21993;42.672;23.296;2024-03-29T06:58:58;4.67;;;1.97;;
35891;SDS011;21993;42.672;23.296;2024-03-29T07:01:24;3.87;;;1.50;;
35891;SDS011;21993;42.672;23.296;2024-03-29T07:03:51;7.37;;;2.23;;
35891;SDS011;21993;42.672;23.296;2024-03-29T07:06:16;9.03;;;1.63;;
35891;SDS011;21993;42.672;23.296;2024-03-29T07:08:42;4.33;;;1.60;;
35891;SDS011;21993;42.672;23.296;2024-03-29T07:11:07;4.63;;;1.30;;
35891;SDS011;21993;42.672;23.296;2024-03-29T07:13:33;4.83;;;1.80;;
35891;SDS011;21993;42.672;23.296;2024-03-29T07:15:59;3.60;;;2.00;;
35891;SDS011;21993;42.672;23.296;2024-03-29T07:18:25;2.93;;;1.30;;
35891;SDS011;21993;42.672;23.296;2024-03-29T07:20:50;1.83;;;1.60;;
35891;SDS011;21993;42.672;23.296;2024-03-29T07:23:16;4.07;;;1.60;;
35891;SDS011;21993;42.672;23.296;2024-03-29T07:25:45;4.70;;;1.40;;
35891;SDS011;21993;42.672;23.296;2024-03-29T07:28:21;3.23;;;1.20;;
35891;SDS011;21993;42.672;23.296;2024-03-29T07:30:47;3.13;;;1.30;;
35891;SDS011;21993;42.672;23.296;2024-03-29T07:33:12;3.03;;;1.20;;
35891;SDS011;21993;42.672;23.296;2024-03-29T07:35:40;4.30;;;1.43;;
35891;SDS011;21993;42.672;23.296;2024-03-29T07:38:06;1.30;;;1.20;;
35891;SDS011;21993;42.672;23.296;2024-03-29T07:40:32;3.53;;;1.67;;
35891;SDS011;21993;42.672;23.296;2024-03-29T07:42:57;1.50;;;1.30;;
35891;SDS011;21993;42.672;23.296;2024-03-29T07:45:25;5.57;;;1.93;;
35891;SDS011;21993;42.672;23.296;2024-03-29T07:47:50;3.43;;;1.60;;
35891;SDS011;21993;42.672;23.296;2024-03-29T07:50:18;2.93;;;1.23;;
35891;SDS011;21993;42.672;23.296;2024-03-29T07:52:46;1.90;;;1.53;;
35891;SDS011;21993;42.672;23.296;2024-03-29T07:55:12;3.80;;;1.33;;
35891;SDS011;21993;42.672;23.296;2024-03-29T07:57:37;3.53;;;1.33;;
35891;SDS011;21993;42.672;23.296;2024-03-29T08:00:03;2.07;;;1.43;;
35891;SDS011;21993;42.672;23.296;2024-03-29T08:02:29;1.40;;;1.30;;
35891;SDS011;21993;42.672;23.296;2024-03-29T08:04:56;5.93;;;1.20;;
35891;SDS011;21993;42.672;23.296;2024-03-29T08:07:22;3.33;;;1.40;;
35891;SDS011;21993;42.672;23.296;2024-03-29T08:09:47;2.77;;;1.60;;
35891;SDS011;21993;42.672;23.296;2024-03-29T08:14:58;4.20;;;1.90;;
35891;SDS011;21993;42.672;23.296;2024-03-29T08:17:24;3.03;;;1.23;;
35891;SDS011;21993;42.672;23.296;2024-03-29T08:19:50;2.90;;;1.90;;
35891;SDS011;21993;42.672;23.296;2024-03-29T08:22:15;1.93;;;1.43;;
35891;SDS011;21993;42.672;23.296;2024-03-29T08:24:41;3.87;;;1.43;;
35891;SDS011;21993;42.672;23.296;2024-03-29T08:27:07;7.07;;;1.57;;
35891;SDS011;21993;42.672;23.296;2024-03-29T08:29:32;3.03;;;1.80;;
35891;SDS011;21993;42.672;23.296;2024-03-29T08:31:58;1.57;;;1.03;;
35891;SDS011;21993;42.672;23.296;2024-03-29T08:34:23;3.40;;;1.63;;
35891;SDS011;21993;42.672;23.296;2024-03-29T08:36:49;3.00;;;1.50;;
35891;SDS011;21993;42.672;23.296;2024-03-29T08:39:15;6.00;;;2.30;;
35891;SDS011;21993;42.672;23.296;2024-03-29T08:41:41;4.20;;;1.83;;
35891;SDS011;21993;42.672;23.296;2024-03-29T08:44:09;2.40;;;1.60;;
35891;SDS011;21993;42.672;23.296;2024-03-29T08:46:35;1.70;;;1.37;;
35891;SDS011;21993;42.672;23.296;2024-03-29T08:49:00;3.50;;;1.50;;
35891;SDS011;21993;42.672;23.296;2024-03-29T08:51:26;3.23;;;1.97;;
35891;SDS011;21993;42.672;23.296;2024-03-29T08:53:51;3.33;;;2.20;;
35891;SDS011;21993;42.672;23.296;2024-03-29T08:56:17;5.00;;;1.97;;
35891;SDS011;21993;42.672;23.296;2024-03-29T08:58:42;4.17;;;1.70;;
35891;SDS011;21993;42.672;23.296;2024-03-29T09:01:08;4.07;;;1.70;;
35891;SDS011;21993;42.672;23.296;2024-03-29T09:03:33;1.83;;;1.10;;
35891;SDS011;21993;42.672;23.296;2024-03-29T09:05:59;2.90;;;1.50;;
35891;SDS011;21993;42.672;23.296;2024-03-29T09:08:24;1.53;;;1.30;;
35891;SDS011;21993;42.672;23.296;2024-03-29T09:10:50;3.23;;;1.20;;
35891;SDS011;21993;42.672;23.296;2024-03-29T09:13:15;3.37;;;1.50;;
35891;SDS011;21993;42.672;23.296;2024-03-29T09:15:41;3.53;;;1.43;;
35891;SDS011;21993;42.672;23.296;2024-03-29T09:18:07;3.73;;;1.50;;
35891;SDS011;21993;42.672;23.296;2024-03-29T09:20:42;3.80;;;1.37;;
35891;SDS011;21993;42.672;23.296;2024-03-29T09:23:09;1.30;;;1.10;;
35891;SDS011;21993;42.672;23.296;2024-03-29T09:25:39;3.10;;;1.40;;
35891;SDS011;21993;42.672;23.296;2024-03-29T09:28:06;2.87;;;1.33;;
35891;SDS011;21993;42.672;23.296;2024-03-29T09:30:32;4.30;;;1.80;;
35891;SDS011;21993;42.672;23.296;2024-03-29T09:32:58;1.67;;;1.23;;
35891;SDS011;21993;42.672;23.296;2024-03-29T09:35:24;2.03;;;1.60;;
35891;SDS011;21993;42.672;23.296;2024-03-29T09:37:50;2.10;;;1.37;;
35891;SDS011;21993;42.672;23.296;2024-03-29T09:40:15;2.53;;;1.50;;
35891;SDS011;21993;42.672;23.296;2024-03-29T09:42:43;6.03;;;1.80;;
35891;SDS011;21993;42.672;23.296;2024-03-29T09:45:09;3.73;;;1.40;;
35891;SDS011;21993;42.672;23.296;2024-03-29T09:47:36;2.83;;;1.20;;
35891;SDS011;21993;42.672;23.296;2024-03-29T09:50:04;3.90;;;1.07;;
35891;SDS011;21993;42.672;23.296;2024-03-29T09:52:33;4.70;;;1.70;;
35891;SDS011;21993;42.672;23.296;2024-03-29T09:55:02;3.47;;;1.30;;
35891;SDS011;21993;42.672;23.296;2024-03-29T09:57:28;3.37;;;1.53;;
35891;SDS011;21993;42.672;23.296;2024-03-29T09:59:56;3.63;;;1.70;;
35891;SDS011;21993;42.672;23.296;2024-03-29T10:02:22;3.33;;;1.27;;
35891;SDS011;21993;42.672;23.296;2024-03-29T10:04:53;2.23;;;1.50;;
35891;SDS011;21993;42.672;23.296;2024-03-29T10:07:21;2.47;;;1.30;;
35891;SDS011;21993;42.672;23.296;2024-03-29T10:09:48;1.67;;;1.10;;
35891;SDS011;21993;42.672;23.296;2024-03-29T10:12:16;8.13;;;2.07;;
35891;SDS011;21993;42.672;23.296;2024-03-29T10:14:43;5.27;;;1.90;;
35891;SDS011;21993;42.672;23.296;2024-03-29T10:17:14;4.70;;;1.60;;
35891;SDS011;21993;42.672;23.296;2024-03-29T10:19:42;3.83;;;1.50;;
35891;SDS011;21993;42.672;23.296;2024-03-29T10:22:07;5.67;;;1.33;;
35891;SDS011;21993;42.672;23.296;2024-03-29T10:24:33;3.20;;;1.43;;
35891;SDS011;21993;42.672;23.296;2024-03-29T10:26:59;4.57;;;1.40;;
35891;SDS011;21993;42.672;23.296;2024-03-29T10:29:28;2.57;;;1.60;;
35891;SDS011;21993;42.672;23.296;2024-03-29T10:31:57;6.03;;;1.67;;
35891;SDS011;21993;42.672;23.296;2024-03-29T10:34:24;3.23;;;1.20;;
35891;SDS011;21993;42.672;23.296;2024-03-29T10:36:50;2.47;;;1.53;;
35891;SDS011;21993;42.672;23.296;2024-03-29T10:39:16;4.53;;;1.60;;
35891;SDS011;21993;42.672;23.296;2024-03-29T10:41:42;1.50;;;1.40;;
35891;SDS011;21993;42.672;23.296;2024-03-29T10:44:09;3.97;;;1.87;;
35891;SDS011;21993;42.672;23.296;2024-03-29T10:46:42;4.90;;;1.90;;
35891;SDS011;21993;42.672;23.296;2024-03-29T10:49:08;2.60;;;1.67;;
35891;SDS011;21993;42.672;23.296;2024-03-29T10:51:39;3.60;;;1.80;;
35891;SDS011;21993;42.672;23.296;2024-03-29T10:54:07;3.93;;;1.33;;
35891;SDS011;21993;42.672;23.296;2024-03-29T10:56:35;2.30;;;1.30;;
35891;SDS011;21993;42.672;23.296;2024-03-29T10:59:12;6.27;;;1.63;;
35891;SDS011;21993;42.672;23.296;2024-03-29T11:01:56;5.33;;;1.50;;
35891;SDS011;21993;42.672;23.296;2024-03-29T11:04:33;4.70;;;1.50;;
35891;SDS011;21993;42.672;23.296;2024-03-29T11:07:04;4.50;;;1.53;;
35891;SDS011;21993;42.672;23.296;2024-03-29T11:09:31;6.53;;;1.80;;
35891;SDS011;21993;42.672;23.296;2024-03-29T11:12:01;3.50;;;1.60;;
35891;SDS011;21993;42.672;23.296;2024-03-29T11:14:34;4.07;;;2.17;;
35891;SDS011;21993;42.672;23.296;2024-03-29T11:17:05;3.97;;;1.53;;
35891;SDS011;21993;42.672;23.296;2024-03-29T11:19:32;5.17;;;1.47;;
35891;SDS011;21993;42.672;23.296;2024-03-29T11:21:58;3.37;;;1.50;;
35891;SDS011;21993;42.672;23.296;2024-03-29T11:24:24;3.90;;;1.90;;
35891;SDS011;21993;42.672;23.296;2024-03-29T11:26:52;5.80;;;2.57;;
35891;SDS011;21993;42.672;23.296;2024-03-29T11:29:18;5.50;;;1.97;;
35891;SDS011;21993;42.672;23.296;2024-03-29T11:31:46;3.47;;;1.53;;
35891;SDS011;21993;42.672;23.296;2024-03-29T11:34:14;2.93;;;1.73;;
35891;SDS011;21993;42.672;23.296;2024-03-29T11:36:44;1.80;;;1.70;;
35891;SDS011;21993;42.672;23.296;2024-03-29T11:39:19;1.47;;;1.37;;
35891;SDS011;21993;42.672;23.296;2024-03-29T11:41:46;3.30;;;1.63;;
35891;SDS011;21993;42.672;23.296;2024-03-29T11:44:13;2.10;;;1.40;;
35891;SDS011;21993;42.672;23.296;2024-03-29T11:46:39;5.27;;;1.70;;
35891;SDS011;21993;42.672;23.296;2024-03-29T11:49:05;5.93;;;1.57;;
35891;SDS011;21993;42.672;23.296;2024-03-29T11:51:31;2.23;;;1.60;;
35891;SDS011;21993;42.672;23.296;2024-03-29T11:53:58;1.73;;;1.43;;
35891;SDS011;21993;42.672;23.296;2024-03-29T11:56:25;3.00;;;1.70;;
35891;SDS011;21993;42.672;23.296;2024-03-29T11:58:50;4.87;;;1.63;;
35891;SDS011;21993;42.672;23.296;2024-03-29T12:01:16;2.57;;;1.33;;
35891;SDS011;21993;42.672;23.296;2024-03-29T12:03:42;3.77;;;1.23;;
35891;SDS011;21993;42.672;23.296;2024-03-29T12:06:12;3.87;;;1.80;;
35891;SDS011;21993;42.672;23.296;2024-03-29T12:08:40;2.03;;;1.50;;
35891;SDS011;21993;42.672;23.296;2024-03-29T12:11:07;3.07;;;1.43;;
35891;SDS011;21993;42.672;23.296;2024-03-29T12:13:33;5.50;;;1.73;;
35891;SDS011;21993;42.672;23.296;2024-03-29T12:15:59;12.67;;;2.30;;
35891;SDS011;21993;42.672;23.296;2024-03-29T12:18:25;3.93;;;2.10;;
35891;SDS011;21993;42.672;23.296;2024-03-29T12:20:53;3.77;;;1.87;;
35891;SDS011;21993;42.672;23.296;2024-03-29T12:23:20;2.10;;;1.30;;
35891;SDS011;21993;42.672;23.296;2024-03-29T12:25:47;2.50;;;1.50;;
35891;SDS011;21993;42.672;23.296;2024-03-29T12:28:14;5.27;;;1.43;;
35891;SDS011;21993;42.672;23.296;2024-03-29T12:30:41;2.43;;;1.47;;
35891;SDS011;21993;42.672;23.296;2024-03-29T12:33:13;2.93;;;1.37;;
35891;SDS011;21993;42.672;23.296;2024-03-29T12:35:43;3.17;;;1.67;;
35891;SDS011;21993;42.672;23.296;2024-03-29T12:38:13;2.60;;;1.60;;
35891;SDS011;21993;42.672;23.296;2024-03-29T12:40:40;7.53;;;2.37;;
35891;SDS011;21993;42.672;23.296;2024-03-29T12:43:09;6.27;;;1.43;;
35891;SDS011;21993;42.672;23.296;2024-03-29T12:45:55;2.53;;;1.40;;
35891;SDS011;21993;42.672;23.296;2024-03-29T12:48:21;3.03;;;1.73;;
35891;SDS011;21993;42.672;23.296;2024-03-29T12:50:50;5.33;;;1.60;;
35891;SDS011;21993;42.672;23.296;2024-03-29T12:53:17;4.37;;;1.60;;
35891;SDS011;21993;42.672;23.296;2024-03-29T12:55:43;3.27;;;1.73;;
35891;SDS011;21993;42.672;23.296;2024-03-29T12:58:13;5.43;;;1.47;;
35891;SDS011;21993;42.672;23.296;2024-03-29T13:00:41;3.43;;;1.80;;
35891;SDS011;21993;42.672;23.296;2024-03-29T13:03:07;7.27;;;2.43;;
35891;SDS011;21993;42.672;23.296;2024-03-29T13:05:37;4.67;;;1.90;;
35891;SDS011;21993;42.672;23.296;2024-03-29T13:08:07;6.47;;;1.77;;
35891;SDS011;21993;42.672;23.296;2024-03-29T13:10:35;2.13;;;1.50;;
35891;SDS011;21993;42.672;23.296;2024-03-29T13:13:01;1.67;;;1.57;;
35891;SDS011;21993;42.672;23.296;2024-03-29T13:15:27;3.87;;;1.30;;
35891;SDS011;21993;42.672;23.296;2024-03-29T13:17:54;1.80;;;1.20;;
35891;SDS011;21993;42.672;23.296;2024-03-29T13:20:21;3.30;;;1.20;;
35891;SDS011;21993;42.672;23.296;2024-03-29T13:22:50;2.30;;;1.40;;
35891;SDS011;21993;42.672;23.296;2024-03-29T13:25:17;5.47;;;1.50;;
35891;SDS011;21993;42.672;23.296;2024-03-29T13:27:48;2.70;;;1.33;;
35891;SDS011;21993;42.672;23.296;2024-03-29T13:30:22;3.13;;;1.10;;
35891;SDS011;21993;42.672;23.296;2024-03-29T13:32:50;2.47;;;1.20;;
35891;SDS011;21993;42.672;23.296;2024-03-29T13:35:15;2.13;;;1.40;;
35891;SDS011;21993;42.672;23.296;2024-03-29T13:37:42;2.83;;;1.30;;
35891;SDS011;21993;42.672;23.296;2024-03-29T13:40:11;2.20;;;1.00;;
35891;SDS011;21993;42.672;23.296;2024-03-29T13:42:37;2.07;;;1.40;;
35891;SDS011;21993;42.672;23.296;2024-03-29T13:45:06;2.00;;;1.33;;
35891;SDS011;21993;42.672;23.296;2024-03-29T13:47:36;5.77;;;1.30;;
35891;SDS011;21993;42.672;23.296;2024-03-29T13:50:04;4.63;;;1.13;;
35891;SDS011;21993;42.672;23.296;2024-03-29T13:52:29;2.37;;;1.37;;
35891;SDS011;21993;42.672;23.296;2024-03-29T13:54:55;2.73;;;1.40;;
35891;SDS011;21993;42.672;23.296;2024-03-29T13:57:21;1.60;;;1.33;;
35891;SDS011;21993;42.672;23.296;2024-03-29T13:59:46;4.97;;;1.20;;
35891;SDS011;21993;42.672;23.296;2024-03-29T14:02:12;2.20;;;1.33;;
35891;SDS011;21993;42.672;23.296;2024-03-29T14:04:39;4.70;;;1.70;;
35891;SDS011;21993;42.672;23.296;2024-03-29T14:07:05;2.37;;;1.43;;
35891;SDS011;21993;42.672;23.296;2024-03-29T14:09:36;4.93;;;1.43;;
35891;SDS011;21993;42.672;23.296;2024-03-29T14:12:08;1.87;;;1.00;;
35891;SDS011;21993;42.672;23.296;2024-03-29T14:14:34;3.03;;;1.20;;
35891;SDS011;21993;42.672;23.296;2024-03-29T14:17:00;7.83;;;1.80;;
35891;SDS011;21993;42.672;23.296;2024-03-29T14:19:34;4.97;;;1.97;;
35891;SDS011;21993;42.672;23.296;2024-03-29T14:22:00;1.53;;;1.20;;
35891;SDS011;21993;42.672;23.296;2024-03-29T14:24:26;2.73;;;1.40;;
35891;SDS011;21993;42.672;23.296;2024-03-29T14:26:53;3.17;;;1.60;;
35891;SDS011;21993;42.672;23.296;2024-03-29T14:29:19;5.47;;;1.63;;
35891;SDS011;21993;42.672;23.296;2024-03-29T14:31:47;1.87;;;1.33;;
35891;SDS011;21993;42.672;23.296;2024-03-29T14:34:13;5.33;;;1.43;;